San Gregorio, CA (94074)

11:19 AM PDT on September 20, 2014 (GMT -0700)
Pinnacle Ranch | Change Station
CLOSE
Current Station
Personal Weather Station
Location: San Gregorio, CA
Elevation: 570 ft
Nearby Weather Stations

Elev 570 ft 37.30 °N, 122.38 °W | Updated 1 second ago

Overcast
Overcast
56.0 °F
Feels Like 56.0 °F
N
2.0
Wind Variable Wind from South
Gusts 7.0 mph

Today
High -- | Low -- °F
--% Chance of Precip.
Yesterday
High -- | Low -- °F
Precip. -- in
6:55 AM 7:09 PM
Waning Crescent, 11% visible
Pressure 29.95 in
Visibility 10.0 miles
Clouds Mostly Cloudy 1500 ft
Dew Point Not available.
Humidity Not available.
Rainfall 0.00 in
Snow Depth 0 in , 0 in , 0 in
UV 3 out of 12
Pollen 4.00 out of 12
Air Quality Not available.
Flu Activity Not available.
METAR KSQL 201747Z 02003KT 10SM BKN015 20/16 A2995

More Conditions Fewer Conditions

Pressure 29.95 in
Visibility 10.0 miles
Clouds Mostly Cloudy 1500 ft
Dew Point Not available.
Humidity Not available.
Rainfall 0.00 in
Snow Depth 0 in , 0 in , 0 in
UV 3 out of 12
Pollen 4.00 out of 12
Air Quality Not available.
Flu Activity Not available.
METAR KSQL 201747Z 02003KT 10SM BKN015 20/16 A2995

More Conditions Fewer Conditions

10-Day Weather Forecast

Almanac

Astronomy

Sep. 20, 2014 Rise Set
Actual Time 6:55 AM PDT 7:09 PM PDT
Civil Twilight 6:29 AM PDT 7:35 PM PDT
Nautical Twilight 5:59 AM PDT 8:05 PM PDT
Astronomical Twilight 5:28 AM PDT 8:36 PM PDT
Moon 3:43 AM PDT 5:12 PM PDT
Length of Visible Light 13h 05m
Length of Day
12h 13m
Tomorrow will be 2m 22s shorter.
Waning Crescent, 11% of the Moon is Illuminated
Today
Waning Crescent
Sep 24
New
Oct 1
First Quarter
Oct 8
Full
Oct 15
Last Quarter

Today's Extremes

State Highs State Lows

Community

WunderPhotos

Upload Photos

1,754,921 photos uploaded!

Nearby

Snow Depth

Station Depth Elevation
Adin Mountain 0 in 6200 ft
Crowder Flat 0 in 5100 ft
Spratt Creek 0 in 6200 ft
Rubicon #2 0 in 7500 ft
Forestdale Creek 0 in 8029 ft

Earthquake Activity

City Distance Mag. Time & Date
Livermore, California 43 miles 2.6 3:37 AM PDT
2014-09-19
The Geysers, California 102 miles 2.5 11:29 PM PDT
2014-09-17
Minimum magnitude displayed is 2.5.

Coastal Water Temperatures

Place Temperature
Point Reyes, CA 66.0 °F
San Francisco, CA 64.9 °F
Richmond, CA 68.0 °F

Nearby Weather Stations